createdAt,value
2022-09-15T00:00:29.207Z,6.03
2022-09-15T00:05:23.382Z,8.00
2022-09-15T00:10:17.753Z,8.05
2022-09-15T00:15:15.605Z,7.50
2022-09-15T00:20:10.803Z,7.28
2022-09-15T00:25:04.503Z,11.07
2022-09-15T00:29:58.260Z,12.40
2022-09-15T00:34:52.056Z,8.00
2022-09-15T00:39:46.903Z,7.22
2022-09-15T00:44:58.540Z,8.95
2022-09-15T00:49:58.975Z,15.90
2022-09-15T00:54:58.905Z,9.27
2022-09-15T00:59:56.693Z,11.32
2022-09-15T01:04:58.491Z,9.38
2022-09-15T01:09:56.581Z,13.32
2022-09-15T01:14:49.679Z,10.98
2022-09-15T01:19:42.652Z,10.68
2022-09-15T01:24:54.292Z,16.58
2022-09-15T01:30:03.354Z,16.40
2022-09-15T01:35:08.087Z,11.68
2022-09-15T01:40:02.721Z,11.10
2022-09-15T01:45:03.512Z,13.52
2022-09-15T01:50:03.676Z,10.10
2022-09-15T01:55:00.929Z,8.65
2022-09-15T01:59:57.008Z,9.32
2022-09-15T02:04:59.285Z,8.13
2022-09-15T02:10:03.737Z,7.40
2022-09-15T02:15:06.360Z,10.90
2022-09-15T02:20:12.184Z,8.15
2022-09-15T02:25:17.263Z,8.05
2022-09-15T02:30:14.683Z,8.00
2022-09-15T02:35:11.927Z,9.48
2022-09-15T02:40:06.727Z,8.68
2022-09-15T02:45:01.456Z,9.35
2022-09-15T02:49:54.947Z,7.72
2022-09-15T02:54:48.467Z,10.50
2022-09-15T03:00:13.416Z,7.45
2022-09-15T03:05:07.714Z,9.13
2022-09-15T03:10:01.925Z,6.72
2022-09-15T03:14:56.377Z,11.38
2022-09-15T03:19:51.257Z,6.55
2022-09-15T03:24:45.908Z,7.32
2022-09-15T03:29:40.069Z,7.90
2022-09-15T03:34:33.243Z,6.22
2022-09-15T03:39:27.062Z,7.43
2022-09-15T03:44:24.198Z,6.57
2022-09-15T03:49:17.653Z,9.73
2022-09-15T03:54:11.700Z,6.90
2022-09-15T03:59:06.646Z,8.68
2022-09-15T04:04:01.350Z,5.13
2022-09-15T04:08:55.668Z,6.93
2022-09-15T04:13:49.181Z,6.93
2022-09-15T04:18:43.208Z,7.82
2022-09-15T04:23:37.678Z,8.25
2022-09-15T04:28:34.137Z,6.60
2022-09-15T04:33:28.053Z,9.20
2022-09-15T04:38:21.236Z,8.40
2022-09-15T04:43:14.680Z,6.75
2022-09-15T04:48:08.531Z,7.38
2022-09-15T04:53:01.986Z,12.38
2022-09-15T04:57:55.992Z,9.02
2022-09-15T05:02:49.621Z,9.63
2022-09-15T05:07:43.988Z,10.63
2022-09-15T05:12:37.452Z,7.43
2022-09-15T05:17:33.593Z,7.47
2022-09-15T05:22:28.584Z,10.43
2022-09-15T05:27:21.936Z,8.15
2022-09-15T05:32:15.197Z,14.65
2022-09-15T05:37:08.885Z,17.83
2022-09-15T05:42:01.651Z,9.55
2022-09-15T05:46:54.859Z,12.05
2022-09-15T05:51:48.760Z,12.48
2022-09-15T05:56:42.558Z,10.77
2022-09-15T06:01:36.873Z,12.23
2022-09-15T06:06:32.400Z,13.20
2022-09-15T06:11:27.473Z,14.10
2022-09-15T06:16:30.152Z,17.67
2022-09-15T06:21:26.517Z,16.15
2022-09-15T06:26:20.416Z,22.90
2022-09-15T06:31:15.024Z,16.90
2022-09-15T06:36:10.645Z,12.40
2022-09-15T06:41:04.673Z,14.18
2022-09-15T06:46:04.685Z,11.38
2022-09-15T06:50:58.133Z,14.43
2022-09-15T06:55:51.765Z,13.68
2022-09-15T07:00:45.205Z,15.48
2022-09-15T07:05:38.735Z,9.32
2022-09-15T07:10:32.979Z,10.93
2022-09-15T07:15:28.343Z,9.75
2022-09-15T07:20:22.544Z,10.65
2022-09-15T07:25:16.491Z,12.30
2022-09-15T07:30:11.997Z,14.40
2022-09-15T07:35:06.355Z,16.88
2022-09-15T07:40:00.914Z,17.85
2022-09-15T07:45:00.821Z,14.63
2022-09-15T07:49:54.807Z,13.35
2022-09-15T07:54:49.274Z,18.27
2022-09-15T07:59:43.564Z,11.82
2022-09-15T08:04:37.300Z,17.20
2022-09-15T08:09:31.381Z,17.20
2022-09-15T08:14:25.677Z,12.77
2022-09-15T08:19:18.827Z,12.05
2022-09-15T08:24:13.895Z,13.98
2022-09-15T08:29:08.407Z,17.50
2022-09-15T08:34:04.924Z,11.32
2022-09-15T08:38:59.348Z,6.70
2022-09-15T08:44:08.773Z,9.20
2022-09-15T08:49:26.862Z,15.13
2022-09-15T08:54:31.763Z,16.10
2022-09-15T08:59:32.770Z,17.88
2022-09-15T09:05:06.013Z,9.60
2022-09-15T09:09:59.028Z,14.18
2022-09-15T09:15:35.109Z,14.60
2022-09-15T09:20:30.003Z,10.57
2022-09-15T09:25:28.313Z,10.40
2022-09-15T09:30:25.342Z,10.63
2022-09-15T09:35:35.158Z,20.63
2022-09-15T09:40:28.795Z,13.95
2022-09-15T09:45:23.289Z,11.55
2022-09-15T09:50:36.182Z,15.00
2022-09-15T09:55:29.889Z,14.77
2022-09-15T10:00:41.213Z,12.05
2022-09-15T10:05:34.278Z,14.68
2022-09-15T10:10:33.144Z,9.27
2022-09-15T10:15:29.527Z,14.25
2022-09-15T10:20:41.432Z,17.95
2022-09-15T10:25:58.507Z,11.52
2022-09-15T10:31:07.251Z,15.60
2022-09-15T10:36:05.551Z,11.85
2022-09-15T10:41:13.269Z,15.50
2022-09-15T10:46:19.204Z,6.55
2022-09-15T10:51:27.800Z,11.35
2022-09-15T10:56:26.676Z,10.07
2022-09-15T11:01:30.819Z,11.50
2022-09-15T11:06:43.257Z,14.95
2022-09-15T11:11:43.704Z,15.50
2022-09-15T11:17:01.882Z,17.73
2022-09-15T11:22:06.616Z,33.72
2022-09-15T11:27:23.818Z,26.02
2022-09-15T11:32:32.197Z,19.30
2022-09-15T11:37:52.186Z,35.85
2022-09-15T11:43:17.544Z,22.10
2022-09-15T11:48:32.212Z,30.55
2022-09-15T11:53:52.140Z,24.60
2022-09-15T11:59:04.268Z,12.07
2022-09-15T12:04:08.395Z,7.03
2022-09-15T12:09:07.161Z,11.35
2022-09-15T12:14:02.094Z,12.15
2022-09-15T12:19:25.973Z,11.75
2022-09-15T12:24:36.343Z,11.60
2022-09-15T12:29:41.791Z,9.02
2022-09-15T12:34:39.349Z,12.25
2022-09-15T12:39:49.641Z,5.90
2022-09-15T12:44:59.427Z,11.73
2022-09-15T12:49:58.010Z,10.57
2022-09-15T12:54:54.908Z,12.27
2022-09-15T12:59:48.887Z,8.25
2022-09-15T13:04:41.784Z,12.38
2022-09-15T13:09:45.661Z,13.57
2022-09-15T13:14:48.982Z,18.20
2022-09-15T13:19:47.193Z,9.77
2022-09-15T13:25:02.087Z,10.68
2022-09-15T13:30:04.427Z,15.38
2022-09-15T13:35:35.801Z,15.57
2022-09-15T13:40:54.467Z,17.88
2022-09-15T13:46:08.783Z,15.75
2022-09-15T13:51:44.209Z,18.27
2022-09-15T13:56:41.976Z,15.50
2022-09-15T14:01:57.434Z,18.35
2022-09-15T14:06:57.178Z,11.07
2022-09-15T14:11:57.368Z,11.75
2022-09-15T14:16:52.019Z,18.27
2022-09-15T14:21:56.250Z,11.07
2022-09-15T14:26:52.019Z,14.02
2022-09-15T14:31:45.769Z,12.82
2022-09-15T14:36:40.085Z,15.50
2022-09-15T14:41:35.122Z,12.05
2022-09-15T14:46:37.212Z,14.10
2022-09-15T14:51:34.211Z,10.50
2022-09-15T14:56:51.099Z,12.27
2022-09-15T15:01:58.624Z,6.43
2022-09-15T15:07:10.233Z,14.82
2022-09-15T15:12:11.989Z,11.77
2022-09-15T15:17:07.145Z,10.85
2022-09-15T15:22:21.367Z,10.15
2022-09-15T15:27:41.784Z,10.00
2022-09-15T15:32:35.669Z,11.85
2022-09-15T15:37:34.687Z,14.82
2022-09-15T15:42:29.495Z,18.23
2022-09-15T15:47:21.817Z,12.27
2022-09-15T15:52:16.491Z,15.98
2022-09-15T15:57:25.191Z,14.43
2022-09-15T16:02:18.711Z,20.95
2022-09-15T16:07:23.897Z,12.60
2022-09-15T16:12:17.744Z,12.52
2022-09-15T16:17:11.644Z,22.08
2022-09-15T16:22:06.266Z,12.98
2022-09-15T16:27:01.076Z,14.63
2022-09-15T16:31:55.317Z,10.55
2022-09-15T16:36:49.564Z,12.30
2022-09-15T16:41:44.021Z,13.45
2022-09-15T16:46:37.735Z,12.75
2022-09-15T16:51:32.308Z,12.65
2022-09-15T16:56:26.392Z,12.23
2022-09-15T17:01:21.398Z,12.07
2022-09-15T17:06:18.459Z,12.05
2022-09-15T17:11:16.763Z,13.18
2022-09-15T17:16:11.741Z,12.68
2022-09-15T17:21:05.620Z,8.38
2022-09-15T17:26:00.918Z,11.23
2022-09-15T17:30:58.617Z,8.63
2022-09-15T17:35:52.531Z,10.15
2022-09-15T17:40:46.117Z,9.20
2022-09-15T17:45:40.157Z,8.50
2022-09-15T17:50:37.083Z,7.80
2022-09-15T17:55:34.068Z,7.80
2022-09-15T18:00:31.064Z,8.52
2022-09-15T18:05:28.772Z,8.10
2022-09-15T18:10:23.162Z,8.68
2022-09-15T18:15:23.096Z,10.57
2022-09-15T18:20:19.029Z,8.00
2022-09-15T18:25:31.463Z,11.18
2022-09-15T18:30:31.971Z,9.38
2022-09-15T18:35:25.145Z,10.88
2022-09-15T18:40:19.691Z,9.27
2022-09-15T18:45:16.309Z,7.38
2022-09-15T18:50:12.490Z,12.07
2022-09-15T18:55:08.483Z,8.95
2022-09-15T19:00:03.447Z,10.35
2022-09-15T19:04:57.875Z,7.05
2022-09-15T19:09:56.381Z,12.25
2022-09-15T19:14:51.231Z,16.13
2022-09-15T19:19:47.190Z,10.35
2022-09-15T19:24:40.160Z,6.20
2022-09-15T19:29:35.378Z,7.43
2022-09-15T19:34:28.068Z,8.20
2022-09-15T19:39:22.360Z,6.80
2022-09-15T19:44:17.016Z,7.28
2022-09-15T19:49:11.252Z,10.18
2022-09-15T19:54:06.269Z,7.30
2022-09-15T19:59:00.240Z,4.35
2022-09-15T20:03:59.627Z,7.10
2022-09-15T20:08:54.836Z,6.00
2022-09-15T20:13:48.816Z,9.90
2022-09-15T20:18:43.521Z,7.68
2022-09-15T20:23:37.233Z,5.10
2022-09-15T20:28:30.238Z,8.57
2022-09-15T20:33:27.181Z,4.22
2022-09-15T20:38:20.665Z,14.85
2022-09-15T20:43:15.507Z,6.63
2022-09-15T20:48:14.383Z,12.75
2022-09-15T20:53:09.060Z,3.85
2022-09-15T20:58:03.603Z,6.05
2022-09-15T21:02:57.148Z,7.10
2022-09-15T21:07:52.788Z,6.20
2022-09-15T21:12:47.045Z,6.30
2022-09-15T21:17:42.233Z,4.60
2022-09-15T21:22:36.921Z,3.35
2022-09-15T21:27:31.988Z,4.93
2022-09-15T21:32:26.445Z,4.95
2022-09-15T21:37:20.117Z,5.07
2022-09-15T21:42:14.344Z,9.10
2022-09-15T21:47:10.265Z,3.30
2022-09-15T21:52:07.893Z,5.22
2022-09-15T21:57:02.042Z,3.83
2022-09-15T22:01:56.561Z,4.43
2022-09-15T22:06:51.531Z,2.92
2022-09-15T22:11:45.749Z,5.07
2022-09-15T22:16:41.422Z,5.00
2022-09-15T22:21:38.108Z,2.97
2022-09-15T22:26:35.661Z,3.03
2022-09-15T22:31:30.786Z,6.75
2022-09-15T22:36:30.277Z,2.80
2022-09-15T22:41:26.580Z,4.95
2022-09-15T22:46:20.983Z,5.50
2022-09-15T22:51:15.413Z,4.80
2022-09-15T22:56:20.414Z,2.63
2022-09-15T23:01:17.137Z,4.25
2022-09-15T23:06:10.806Z,4.32
2022-09-15T23:11:12.746Z,7.60
2022-09-15T23:16:07.416Z,5.68
2022-09-15T23:21:03.722Z,3.42
2022-09-15T23:25:57.684Z,7.07
2022-09-15T23:30:55.753Z,4.68
2022-09-15T23:35:49.842Z,2.60
2022-09-15T23:40:47.550Z,1.83
2022-09-15T23:45:42.026Z,2.95
2022-09-15T23:50:37.012Z,4.32
2022-09-15T23:55:31.138Z,3.85
